createdAt,value
2023-05-08T00:03:24.497Z,7.19
2023-05-08T00:08:36.918Z,6.89
2023-05-08T00:13:41.389Z,6.71
2023-05-08T00:18:54.227Z,6.56
2023-05-08T00:24:02.563Z,6.41
2023-05-08T00:29:16.421Z,6.36
2023-05-08T00:34:19.100Z,6.31
2023-05-08T00:39:36.193Z,6.28
2023-05-08T00:44:40.218Z,6.31
2023-05-08T00:49:43.100Z,6.43
2023-05-08T00:54:57.926Z,6.49
2023-05-08T01:00:14.131Z,6.69
2023-05-08T01:05:30.120Z,6.79
2023-05-08T01:11:18.507Z,6.90
2023-05-08T01:16:54.268Z,7.08
2023-05-08T01:22:40.912Z,7.15
2023-05-08T01:28:23.682Z,7.27
2023-05-08T01:33:30.833Z,7.32
2023-05-08T01:38:47.827Z,7.32
2023-05-08T01:44:27.277Z,7.37
2023-05-08T01:49:46.831Z,7.38
2023-05-08T01:55:27.793Z,7.41
2023-05-08T02:00:43.946Z,7.44
2023-05-08T02:05:48.904Z,7.45
2023-05-08T02:10:55.169Z,7.48
2023-05-08T02:15:59.520Z,7.50
2023-05-08T02:21:09.662Z,7.55
2023-05-08T02:26:17.740Z,7.55
2023-05-08T02:31:25.228Z,7.43
2023-05-08T02:36:30.526Z,7.44
2023-05-08T02:41:40.173Z,7.47
2023-05-08T02:47:08.208Z,7.51
2023-05-08T02:52:17.594Z,7.50
2023-05-08T02:57:29.385Z,7.45
2023-05-08T03:02:40.351Z,7.47
2023-05-08T03:07:45.477Z,7.57
2023-05-08T03:12:54.454Z,7.66
2023-05-08T03:18:14.994Z,7.67
2023-05-08T03:23:22.087Z,7.61
2023-05-08T03:28:32.665Z,7.60
2023-05-08T03:33:49.192Z,7.53
2023-05-08T03:38:54.693Z,7.59
2023-05-08T03:44:05.746Z,7.60
2023-05-08T03:49:12.289Z,7.50
2023-05-08T03:54:15.488Z,7.41
2023-05-08T03:59:38.523Z,7.41
2023-05-08T04:04:44.495Z,7.33
2023-05-08T04:09:55.977Z,7.30
2023-05-08T04:15:17.886Z,7.36
2023-05-08T04:20:27.475Z,7.41
2023-05-08T04:25:43.093Z,7.51
2023-05-08T04:30:55.585Z,7.63
2023-05-08T04:36:07.193Z,7.74
2023-05-08T04:41:15.540Z,7.92
2023-05-08T04:46:24.537Z,8.26
2023-05-08T04:51:33.078Z,8.61
2023-05-08T04:56:36.190Z,8.88
2023-05-08T05:01:38.506Z,9.02
2023-05-08T05:07:00.326Z,9.05
2023-05-08T05:12:17.684Z,9.15
2023-05-08T05:17:24.352Z,9.40
2023-05-08T05:22:35.302Z,9.53
2023-05-08T05:27:43.047Z,9.50
2023-05-08T05:32:45.874Z,9.59
2023-05-08T05:37:49.420Z,9.76
2023-05-08T05:42:53.587Z,9.74
2023-05-08T05:47:56.431Z,9.82
2023-05-08T05:52:59.806Z,9.91
2023-05-08T05:58:02.550Z,9.95
2023-05-08T06:03:05.111Z,10.05
2023-05-08T06:08:09.520Z,10.05
2023-05-08T06:13:11.887Z,9.98
2023-05-08T06:18:19.875Z,9.98
2023-05-08T06:23:29.474Z,10.03
2023-05-08T06:28:42.312Z,10.02
2023-05-08T06:33:44.659Z,10.03
2023-05-08T06:38:47.304Z,10.10
2023-05-08T06:43:49.642Z,10.31
2023-05-08T06:48:51.811Z,10.36
2023-05-08T06:53:56.723Z,10.42
2023-05-08T06:59:08.902Z,10.46
2023-05-08T07:04:22.657Z,10.58
2023-05-08T07:09:39.416Z,10.71
2023-05-08T07:14:42.336Z,10.90
2023-05-08T07:19:51.341Z,10.97
2023-05-08T07:24:56.670Z,11.02
2023-05-08T07:30:04.373Z,11.22
2023-05-08T07:35:11.594Z,11.35
2023-05-08T07:40:14.352Z,11.59
2023-05-08T07:45:19.153Z,11.73
2023-05-08T07:50:26.601Z,11.44
2023-05-08T07:55:28.819Z,11.38
2023-05-08T08:00:34.023Z,11.51
2023-05-08T08:05:47.702Z,11.63
2023-05-08T08:10:50.717Z,11.64
2023-05-08T08:16:00.343Z,11.63
2023-05-08T08:21:06.735Z,11.78
2023-05-08T08:26:11.657Z,11.87
2023-05-08T08:31:16.730Z,11.95
2023-05-08T08:36:26.264Z,12.01
2023-05-08T08:41:33.837Z,11.82
2023-05-08T08:46:47.305Z,11.62
2023-05-08T08:52:07.070Z,11.62
2023-05-08T08:57:09.531Z,11.89
2023-05-08T09:02:17.671Z,12.28
2023-05-08T09:07:26.221Z,12.70
2023-05-08T09:12:31.051Z,13.16
2023-05-08T09:17:38.659Z,13.35
2023-05-08T09:23:06.967Z,13.36
2023-05-08T09:28:20.338Z,12.99
2023-05-08T09:33:39.632Z,12.76
2023-05-08T09:38:44.554Z,12.96
2023-05-08T09:44:03.081Z,13.16
2023-05-08T09:49:06.417Z,13.46
2023-05-08T09:54:18.082Z,13.68
2023-05-08T09:59:34.410Z,13.87
2023-05-08T10:04:42.884Z,13.95
2023-05-08T10:10:05.919Z,14.06
2023-05-08T10:15:11.150Z,13.92
2023-05-08T10:20:27.641Z,13.71
2023-05-08T10:25:37.162Z,13.76
2023-05-08T10:30:50.896Z,14.12
2023-05-08T10:36:01.395Z,14.21
2023-05-08T10:41:14.229Z,14.37
2023-05-08T10:46:35.280Z,14.67
2023-05-08T10:52:30.769Z,14.74
2023-05-08T10:57:33.575Z,14.28
2023-05-08T11:02:38.381Z,13.81
2023-05-08T11:08:18.073Z,13.47
2023-05-08T11:13:38.131Z,13.32
2023-05-08T11:19:17.153Z,13.27
2023-05-08T11:24:39.628Z,13.51
2023-05-08T11:29:45.053Z,14.12
2023-05-08T11:34:52.190Z,14.51
2023-05-08T11:39:54.573Z,14.63
2023-05-08T11:45:10.070Z,14.89
2023-05-08T11:50:18.002Z,15.17
2023-05-08T11:55:29.570Z,15.48
2023-05-08T12:00:41.186Z,15.72
2023-05-08T12:05:50.032Z,15.89
2023-05-08T12:10:54.331Z,15.79
2023-05-08T12:15:59.911Z,15.56
2023-05-08T12:21:21.398Z,15.34
2023-05-08T12:26:38.723Z,15.23
2023-05-08T12:31:47.215Z,15.20
2023-05-08T12:36:58.167Z,15.33
2023-05-08T12:42:01.293Z,15.40
2023-05-08T12:47:06.326Z,15.44
2023-05-08T12:52:12.808Z,15.43
2023-05-08T12:57:22.867Z,15.53
2023-05-08T13:02:27.582Z,15.69
2023-05-08T13:07:36.853Z,15.74
2023-05-08T13:12:39.103Z,15.32
2023-05-08T13:17:41.680Z,14.85
2023-05-08T13:22:44.966Z,14.37
2023-05-08T13:27:47.239Z,13.97
2023-05-08T13:32:53.777Z,13.76
2023-05-08T13:37:57.677Z,13.56
2023-05-08T13:43:03.160Z,13.53
2023-05-08T13:48:06.224Z,13.96
2023-05-08T13:53:11.464Z,14.34
2023-05-08T13:58:21.355Z,14.32
2023-05-08T14:03:24.299Z,14.24
2023-05-08T14:08:34.978Z,14.07
2023-05-08T14:13:43.285Z,13.86
2023-05-08T14:18:51.837Z,13.84
2023-05-08T14:24:01.687Z,13.92
2023-05-08T14:29:05.443Z,14.08
2023-05-08T14:34:11.369Z,14.31
2023-05-08T14:39:18.961Z,14.65
2023-05-08T14:44:24.696Z,14.99
2023-05-08T14:54:53.900Z,14.79
2023-05-08T15:00:28.691Z,14.48
2023-05-08T15:06:07.727Z,14.21
2023-05-08T15:11:34.528Z,14.35
2023-05-08T15:16:46.774Z,14.86
2023-05-08T15:21:51.529Z,15.32
2023-05-08T15:26:57.070Z,15.25
2023-05-08T15:32:09.568Z,14.87
2023-05-08T15:37:12.208Z,14.75
2023-05-08T15:42:21.873Z,14.95
2023-05-08T15:47:28.158Z,15.20
2023-05-08T15:52:33.773Z,15.13
2023-05-08T15:57:36.939Z,14.84
2023-05-08T16:02:39.184Z,14.51
2023-05-08T16:07:54.464Z,14.19
2023-05-08T16:12:59.170Z,14.00
2023-05-08T16:18:08.216Z,13.94
2023-05-08T16:23:10.724Z,13.87
2023-05-08T16:28:15.989Z,13.98
2023-05-08T16:33:23.239Z,13.92
2023-05-08T16:38:33.750Z,13.68
2023-05-08T16:43:35.818Z,13.46
2023-05-08T16:48:38.413Z,13.26
2023-05-08T16:53:41.048Z,13.04
2023-05-08T16:58:43.750Z,12.89
2023-05-08T17:03:46.160Z,12.64
2023-05-08T17:08:49.149Z,12.34
2023-05-08T17:13:51.492Z,12.02
2023-05-08T17:18:54.455Z,11.80
2023-05-08T17:23:56.668Z,11.66
2023-05-08T17:28:59.763Z,11.65
2023-05-08T17:34:02.170Z,11.66
2023-05-08T17:39:10.076Z,11.67
2023-05-08T17:44:12.213Z,11.64
2023-05-08T17:49:15.875Z,11.53
2023-05-08T17:54:19.606Z,11.35
2023-05-08T17:59:21.863Z,11.12
2023-05-08T18:04:24.102Z,10.83
2023-05-08T18:09:26.140Z,10.53
2023-05-08T18:14:32.089Z,10.22
2023-05-08T18:19:36.433Z,9.97
2023-05-08T18:24:41.061Z,9.78
2023-05-08T18:29:43.538Z,9.54
2023-05-08T18:34:46.320Z,9.28
2023-05-08T18:39:51.676Z,9.04
2023-05-08T18:44:57.111Z,8.82
2023-05-08T18:50:00.698Z,8.58
2023-05-08T18:55:13.185Z,8.36
2023-05-08T19:00:19.894Z,8.17
2023-05-08T19:05:22.696Z,8.00
2023-05-08T19:10:25.658Z,7.85
2023-05-08T19:15:28.532Z,7.70
2023-05-08T19:20:32.094Z,7.70
2023-05-08T19:25:34.379Z,8.03
2023-05-08T19:30:36.597Z,8.27
2023-05-08T19:35:39.548Z,8.44
2023-05-08T19:40:55.721Z,8.51
2023-05-08T19:46:00.245Z,8.52
2023-05-08T19:51:10.112Z,8.49
2023-05-08T19:56:13.177Z,8.46
2023-05-08T20:01:17.515Z,8.41
2023-05-08T20:06:19.757Z,8.36
2023-05-08T20:11:22.804Z,8.30
2023-05-08T20:16:30.902Z,8.23
2023-05-08T20:21:33.997Z,8.14
2023-05-08T20:26:38.772Z,8.03
2023-05-08T20:31:44.337Z,7.94
2023-05-08T20:36:49.313Z,7.84
2023-05-08T20:41:51.856Z,7.77
2023-05-08T20:46:54.339Z,7.69
2023-05-08T20:52:00.025Z,7.60
2023-05-08T20:57:04.804Z,7.51
2023-05-08T21:02:11.169Z,7.43
2023-05-08T21:07:21.129Z,7.35
2023-05-08T21:12:32.418Z,7.27
2023-05-08T21:17:36.231Z,7.19
2023-05-08T21:22:47.613Z,7.12
2023-05-08T21:28:04.852Z,7.04
2023-05-08T21:33:10.168Z,6.97
2023-05-08T21:38:48.254Z,6.89
2023-05-08T21:44:00.674Z,6.85
2023-05-08T21:49:06.418Z,6.83
2023-05-08T21:54:09.555Z,6.78
2023-05-08T21:59:14.660Z,6.69
2023-05-08T22:04:29.341Z,6.61
2023-05-08T22:09:36.947Z,6.57
2023-05-08T22:14:45.367Z,6.51
2023-05-08T22:19:52.764Z,6.49
2023-05-08T22:25:17.137Z,6.42
2023-05-08T22:30:28.684Z,6.39
2023-05-08T22:35:37.187Z,6.34
2023-05-08T22:40:49.866Z,6.31
2023-05-08T22:45:52.678Z,6.28
2023-05-08T22:51:00.521Z,6.26
2023-05-08T22:56:06.089Z,6.21
2023-05-08T23:01:08.731Z,6.17
2023-05-08T23:06:16.165Z,6.10
2023-05-08T23:11:22.445Z,6.08
2023-05-08T23:16:40.331Z,5.98
2023-05-08T23:21:42.472Z,5.93
2023-05-08T23:26:52.506Z,5.87
2023-05-08T23:32:02.161Z,5.81
2023-05-08T23:37:07.406Z,5.70
2023-05-08T23:42:10.084Z,5.64
2023-05-08T23:47:27.290Z,5.63
2023-05-08T23:52:29.734Z,5.57
2023-05-08T23:57:42.575Z,5.48
